createdAt,value
2023-03-16T00:00:37.470Z,-0.82
2023-03-16T00:01:37.498Z,-0.75
2023-03-16T00:02:37.442Z,-0.75
2023-03-16T00:03:37.468Z,-0.80
2023-03-16T00:04:37.474Z,-0.82
2023-03-16T00:05:37.400Z,-0.80
2023-03-16T00:06:37.388Z,-0.77
2023-03-16T00:07:37.374Z,-0.77
2023-03-16T00:08:37.360Z,-0.72
2023-03-16T00:09:37.346Z,-0.78
2023-03-16T00:10:37.401Z,-0.75
2023-03-16T00:11:37.321Z,-0.80
2023-03-16T00:12:37.304Z,-0.74
2023-03-16T00:13:37.291Z,-0.77
2023-03-16T00:14:37.275Z,-0.67
2023-03-16T00:15:37.264Z,-0.74
2023-03-16T00:16:37.335Z,-0.80
2023-03-16T00:17:37.245Z,-0.68
2023-03-16T00:18:37.220Z,-0.64
2023-03-16T00:19:37.208Z,-0.70
2023-03-16T00:20:37.191Z,-0.70
2023-03-16T00:21:37.189Z,-0.71
2023-03-16T00:22:37.176Z,-0.78
2023-03-16T00:23:37.148Z,-0.74
2023-03-16T00:24:37.136Z,-0.78
2023-03-16T00:25:37.124Z,-0.75
2023-03-16T00:26:37.110Z,-0.80
2023-03-16T00:27:37.096Z,-0.78
2023-03-16T00:28:37.081Z,-0.78
2023-03-16T00:29:37.065Z,-0.83
2023-03-16T00:30:37.049Z,-0.78
2023-03-16T00:31:37.144Z,-0.74
2023-03-16T00:32:37.067Z,-0.82
2023-03-16T00:33:37.007Z,-0.74
2023-03-16T00:34:36.993Z,-0.77
2023-03-16T00:35:37.010Z,-0.80
2023-03-16T00:36:36.977Z,-0.82
2023-03-16T00:37:37.023Z,-0.77
2023-03-16T00:38:36.936Z,-0.82
2023-03-16T00:39:36.958Z,-0.78
2023-03-16T00:40:36.907Z,-0.75
2023-03-16T00:41:36.892Z,-0.77
2023-03-16T00:42:36.880Z,-0.75
2023-03-16T00:43:36.864Z,-0.65
2023-03-16T00:44:36.850Z,-0.72
2023-03-16T00:45:36.868Z,-0.75
2023-03-16T00:46:36.823Z,-0.78
2023-03-16T00:47:36.808Z,-0.71
2023-03-16T00:48:36.797Z,-0.71
2023-03-16T00:49:36.786Z,-0.77
2023-03-16T00:50:36.768Z,-0.75
2023-03-16T00:51:36.747Z,-0.75
2023-03-16T00:52:36.741Z,-0.78
2023-03-16T00:53:36.744Z,-0.70
2023-03-16T00:54:36.708Z,-0.80
2023-03-16T00:55:36.693Z,-0.75
2023-03-16T00:56:36.680Z,-0.75
2023-03-16T00:57:36.669Z,-0.80
2023-03-16T00:58:36.654Z,-0.74
2023-03-16T00:59:36.636Z,-0.72
2023-03-16T01:00:36.649Z,-0.68
2023-03-16T01:01:36.626Z,-0.72
2023-03-16T01:02:36.643Z,-0.78
2023-03-16T01:03:36.641Z,-0.72
2023-03-16T01:04:36.588Z,-0.70
2023-03-16T01:05:36.555Z,-0.67
2023-03-16T01:06:38.824Z,-0.70
2023-03-16T01:07:36.539Z,-0.64
2023-03-16T01:08:36.513Z,-0.75
2023-03-16T01:09:36.495Z,-0.70
2023-03-16T01:10:36.486Z,-0.80
2023-03-16T01:11:36.482Z,-0.77
2023-03-16T01:12:36.465Z,-0.77
2023-03-16T01:13:36.446Z,-0.82
2023-03-16T01:14:36.437Z,-0.80
2023-03-16T01:15:36.414Z,-0.83
2023-03-16T01:16:36.488Z,-0.83
2023-03-16T01:17:36.388Z,-0.83
2023-03-16T01:18:36.377Z,-0.77
2023-03-16T01:19:36.368Z,-0.77
2023-03-16T01:20:36.347Z,-0.78
2023-03-16T01:21:36.339Z,-0.78
2023-03-16T01:22:36.350Z,-0.83
2023-03-16T01:23:36.306Z,-0.90
2023-03-16T01:24:36.289Z,-0.90
2023-03-16T01:25:36.279Z,-0.90
2023-03-16T01:26:36.262Z,-0.82
2023-03-16T01:27:36.262Z,-0.96
2023-03-16T01:28:36.234Z,-0.96
2023-03-16T01:29:36.222Z,-0.97
2023-03-16T01:30:36.234Z,-1.02
2023-03-16T01:31:36.201Z,-1.02
2023-03-16T01:32:36.194Z,-0.96
2023-03-16T01:33:36.164Z,-0.94
2023-03-16T01:34:36.174Z,-0.99
2023-03-16T01:35:36.173Z,-1.02
2023-03-16T01:36:36.136Z,-0.97
2023-03-16T01:37:36.107Z,-1.08
2023-03-16T01:38:36.096Z,-1.04
2023-03-16T01:39:36.079Z,-0.99
2023-03-16T01:40:36.062Z,-1.04
2023-03-16T01:41:36.051Z,-1.02
2023-03-16T01:42:36.042Z,-1.02
2023-03-16T01:43:36.022Z,-1.04
2023-03-16T01:44:36.006Z,-0.99
2023-03-16T01:45:35.995Z,-1.07
2023-03-16T01:46:36.054Z,-1.01
2023-03-16T01:47:35.964Z,-1.05
2023-03-16T01:48:35.953Z,-1.04
2023-03-16T01:49:35.948Z,-1.01
2023-03-16T01:50:35.967Z,-0.89
2023-03-16T01:51:35.910Z,-0.85
2023-03-16T01:52:35.910Z,-0.83
2023-03-16T01:53:35.880Z,-0.94
2023-03-16T01:54:35.872Z,-0.94
2023-03-16T01:55:35.853Z,-0.85
2023-03-16T01:56:35.841Z,-0.94
2023-03-16T01:57:35.830Z,-0.93
2023-03-16T01:58:35.813Z,-0.90
2023-03-16T01:59:35.811Z,-0.91
2023-03-16T02:00:35.788Z,-0.97
2023-03-16T02:01:35.828Z,-0.93
2023-03-16T02:02:35.756Z,-1.01
2023-03-16T02:03:35.761Z,-0.89
2023-03-16T02:04:35.751Z,-1.04
2023-03-16T02:05:35.734Z,-0.97
2023-03-16T02:06:35.703Z,-1.04
2023-03-16T02:07:35.703Z,-1.12
2023-03-16T02:08:35.667Z,-1.09
2023-03-16T02:09:35.655Z,-1.14
2023-03-16T02:10:35.642Z,-1.12
2023-03-16T02:11:35.633Z,-1.12
2023-03-16T02:12:35.612Z,-1.08
2023-03-16T02:13:35.600Z,-1.20
2023-03-16T02:14:35.587Z,-1.22
2023-03-16T02:15:35.676Z,-1.22
2023-03-16T02:16:35.558Z,-1.20
2023-03-16T02:17:35.544Z,-1.14
2023-03-16T02:18:35.538Z,-1.26
2023-03-16T02:19:35.515Z,-1.23
2023-03-16T02:20:35.662Z,-1.26
2023-03-16T02:21:35.496Z,-1.20
2023-03-16T02:22:35.473Z,-1.22
2023-03-16T02:23:35.459Z,-1.27
2023-03-16T02:24:35.443Z,-1.30
2023-03-16T02:25:35.451Z,-1.25
2023-03-16T02:26:35.416Z,-1.27
2023-03-16T02:27:35.398Z,-1.37
2023-03-16T02:28:35.388Z,-1.32
2023-03-16T02:29:35.374Z,-1.37
2023-03-16T02:30:35.368Z,-1.33
2023-03-16T02:31:35.444Z,-1.37
2023-03-16T02:32:35.369Z,-1.33
2023-03-16T02:33:35.318Z,-1.33
2023-03-16T02:34:35.321Z,-1.41
2023-03-16T02:35:35.337Z,-1.35
2023-03-16T02:36:35.278Z,-1.38
2023-03-16T02:37:35.259Z,-1.29
2023-03-16T02:38:35.254Z,-1.32
2023-03-16T02:39:35.234Z,-1.43
2023-03-16T02:40:35.268Z,-1.32
2023-03-16T02:41:35.208Z,-1.33
2023-03-16T02:42:35.189Z,-1.44
2023-03-16T02:43:35.177Z,-1.46
2023-03-16T02:44:35.181Z,-1.46
2023-03-16T02:45:35.145Z,-1.47
2023-03-16T02:46:35.172Z,-1.29
2023-03-16T02:47:35.221Z,-1.40
2023-03-16T02:48:35.105Z,-1.30
2023-03-16T02:49:35.087Z,-1.37
2023-03-16T02:50:35.078Z,-1.43
2023-03-16T02:51:35.060Z,-1.33
2023-03-16T02:52:35.046Z,-1.43
2023-03-16T02:53:35.031Z,-1.44
2023-03-16T02:54:35.021Z,-1.35
2023-03-16T02:55:35.001Z,-1.23
2023-03-16T02:56:34.991Z,-1.40
2023-03-16T02:57:34.974Z,-1.33
2023-03-16T02:58:34.957Z,-1.32
2023-03-16T02:59:34.944Z,-1.33
2023-03-16T03:00:34.937Z,-1.33
2023-03-16T03:01:34.942Z,-1.30
2023-03-16T03:02:34.901Z,-1.43
2023-03-16T03:03:34.948Z,-1.29
2023-03-16T03:04:34.870Z,-1.46
2023-03-16T03:05:34.858Z,-1.33
2023-03-16T03:06:34.846Z,-1.41
2023-03-16T03:07:34.841Z,-1.38
2023-03-16T03:08:34.814Z,-1.33
2023-03-16T03:09:34.800Z,-1.41
2023-03-16T03:10:34.787Z,-1.40
2023-03-16T03:11:34.769Z,-1.43
2023-03-16T03:12:34.756Z,-1.38
2023-03-16T03:13:34.741Z,-1.46
2023-03-16T03:14:34.731Z,-1.46
2023-03-16T03:15:34.711Z,-1.41
2023-03-16T03:16:34.751Z,-1.48
2023-03-16T03:17:34.684Z,-1.50
2023-03-16T03:18:34.723Z,-1.48
2023-03-16T03:19:34.657Z,-1.47
2023-03-16T03:20:34.642Z,-1.51
2023-03-16T03:21:34.635Z,-1.47
2023-03-16T03:22:34.619Z,-1.41
2023-03-16T03:23:34.598Z,-1.43
2023-03-16T03:24:34.586Z,-1.44
2023-03-16T03:25:34.573Z,-1.46
2023-03-16T03:26:34.563Z,-1.46
2023-03-16T03:27:34.577Z,-1.41
2023-03-16T03:28:34.525Z,-1.51
2023-03-16T03:29:34.632Z,-1.48
2023-03-16T03:30:34.497Z,-1.47
2023-03-16T03:31:34.515Z,-1.44
2023-03-16T03:32:34.524Z,-1.54
2023-03-16T03:33:34.466Z,-1.46
2023-03-16T03:34:34.441Z,-1.48
2023-03-16T03:35:34.460Z,-1.46
2023-03-16T03:36:34.426Z,-1.47
2023-03-16T03:37:34.443Z,-1.43
2023-03-16T03:38:34.383Z,-1.48
2023-03-16T03:39:34.368Z,-1.43
2023-03-16T03:40:34.354Z,-1.51
2023-03-16T03:41:34.339Z,-1.43
2023-03-16T03:42:34.326Z,-1.46
2023-03-16T03:43:34.309Z,-1.41
2023-03-16T03:44:34.297Z,-1.40
2023-03-16T03:45:34.369Z,-1.41
2023-03-16T03:46:34.379Z,-1.48
2023-03-16T03:47:34.254Z,-1.43
2023-03-16T03:48:34.238Z,-1.40
2023-03-16T03:49:34.227Z,-1.47
2023-03-16T03:50:34.210Z,-1.47
2023-03-16T03:51:34.210Z,-1.46
2023-03-16T03:52:34.180Z,-1.40
2023-03-16T03:53:34.170Z,-1.40
2023-03-16T03:54:34.152Z,-1.41
2023-03-16T03:55:34.141Z,-1.41
2023-03-16T03:56:34.125Z,-1.30
2023-03-16T03:57:34.108Z,-1.48
2023-03-16T03:58:34.093Z,-1.47
2023-03-16T03:59:34.081Z,-1.47
2023-03-16T04:00:34.064Z,-1.38
2023-03-16T04:01:34.051Z,-1.53
2023-03-16T04:02:34.161Z,-1.47
2023-03-16T04:03:34.090Z,-1.43
2023-03-16T04:04:34.013Z,-1.43
2023-03-16T04:05:33.992Z,-1.43
2023-03-16T04:06:33.981Z,-1.43
2023-03-16T04:07:33.963Z,-1.41
2023-03-16T04:08:33.950Z,-1.35
2023-03-16T04:09:33.940Z,-1.44
2023-03-16T04:10:33.920Z,-1.43
2023-03-16T04:11:33.905Z,-1.30
2023-03-16T04:12:33.891Z,-1.35
2023-03-16T04:13:33.877Z,-1.27
2023-03-16T04:14:33.892Z,-1.27
2023-03-16T04:15:33.853Z,-1.26
2023-03-16T04:16:33.848Z,-1.33
2023-03-16T04:17:33.820Z,-1.27
2023-03-16T04:18:33.805Z,-1.30
2023-03-16T04:19:33.799Z,-1.29
2023-03-16T04:20:33.777Z,-1.30
2023-03-16T04:21:33.761Z,-1.26
2023-03-16T04:22:33.743Z,-1.29
2023-03-16T04:23:33.729Z,-1.29
2023-03-16T04:24:33.717Z,-1.30
2023-03-16T04:25:33.703Z,-1.33
2023-03-16T04:26:33.687Z,-1.22
2023-03-16T04:27:33.674Z,-1.27
2023-03-16T04:28:33.659Z,-1.33
2023-03-16T04:29:33.645Z,-1.33
2023-03-16T04:30:33.648Z,-1.29
2023-03-16T04:31:33.626Z,-1.33
2023-03-16T04:32:33.631Z,-1.30
2023-03-16T04:33:33.588Z,-1.44
2023-03-16T04:34:33.572Z,-1.44
2023-03-16T04:35:33.581Z,-1.46
2023-03-16T04:36:33.551Z,-1.50
2023-03-16T04:37:33.530Z,-1.46
2023-03-16T04:38:33.516Z,-1.48
2023-03-16T04:39:33.498Z,-1.46
2023-03-16T04:40:33.498Z,-1.47
2023-03-16T04:41:33.474Z,-1.50
2023-03-16T04:42:33.461Z,-1.53
2023-03-16T04:43:33.458Z,-1.54
2023-03-16T04:44:33.430Z,-1.58
2023-03-16T04:45:33.416Z,-1.56
2023-03-16T04:46:33.457Z,-1.53
2023-03-16T04:47:33.564Z,-1.58
2023-03-16T04:48:33.371Z,-1.62
2023-03-16T04:49:33.364Z,-1.64
2023-03-16T04:50:33.345Z,-1.64
2023-03-16T04:51:33.324Z,-1.65
2023-03-16T04:52:33.311Z,-1.71
2023-03-16T04:53:33.299Z,-1.71
2023-03-16T04:54:33.281Z,-1.79
2023-03-16T04:55:33.271Z,-1.77
2023-03-16T04:56:33.252Z,-1.77
2023-03-16T04:57:33.237Z,-1.72
2023-03-16T04:58:33.228Z,-1.76
2023-03-16T04:59:33.209Z,-1.76
2023-03-16T05:00:33.193Z,-1.69
2023-03-16T05:01:33.211Z,-1.87
2023-03-16T05:02:33.165Z,-1.87
2023-03-16T05:03:33.149Z,-1.94
2023-03-16T05:04:33.137Z,-1.90
2023-03-16T05:05:33.159Z,-1.90
2023-03-16T05:06:33.110Z,-1.89
2023-03-16T05:07:33.095Z,-1.90
2023-03-16T05:08:33.077Z,-1.95
2023-03-16T05:09:33.062Z,-1.95
2023-03-16T05:10:33.050Z,-1.95
2023-03-16T05:11:33.032Z,-1.95
2023-03-16T05:12:33.019Z,-1.83
2023-03-16T05:13:33.005Z,-1.90
2023-03-16T05:14:33.007Z,-1.82
2023-03-16T05:15:32.976Z,-1.80
2023-03-16T05:16:32.961Z,-1.95
2023-03-16T05:17:32.977Z,-1.86
2023-03-16T05:18:32.934Z,-1.90
2023-03-16T05:19:32.918Z,-1.90
2023-03-16T05:20:32.911Z,-1.84
2023-03-16T05:21:32.889Z,-1.83
2023-03-16T05:22:32.878Z,-1.83
2023-03-16T05:23:32.978Z,-1.86
2023-03-16T05:24:32.843Z,-1.87
2023-03-16T05:25:32.831Z,-1.82
2023-03-16T05:26:32.820Z,-1.89
2023-03-16T05:27:32.799Z,-1.82
2023-03-16T05:28:32.785Z,-1.92
2023-03-16T05:29:39.935Z,-1.97
2023-03-16T05:31:36.781Z,-1.89
2023-03-16T05:32:36.776Z,-1.94
2023-03-16T05:34:29.833Z,-1.89
2023-03-16T05:35:29.843Z,-1.87
2023-03-16T05:37:22.945Z,-1.84
2023-03-16T05:38:22.947Z,-1.79
2023-03-16T05:40:15.842Z,-1.76
2023-03-16T05:41:15.821Z,-1.76
2023-03-16T05:43:19.833Z,-1.80
2023-03-16T05:44:19.812Z,-1.82
2023-03-16T05:46:23.965Z,-1.69
2023-03-16T05:47:23.870Z,-1.62
2023-03-16T05:49:27.851Z,-1.69
2023-03-16T05:50:28.023Z,-1.74
2023-03-16T05:52:20.946Z,-1.64
2023-03-16T05:53:20.905Z,-1.56
2023-03-16T05:55:24.906Z,-1.46
2023-03-16T05:56:24.888Z,-1.47
2023-03-16T05:58:28.838Z,-1.33
2023-03-16T05:59:28.822Z,-1.33
2023-03-16T06:01:32.813Z,-1.14
2023-03-16T06:02:32.843Z,-0.97
2023-03-16T06:04:36.787Z,0.32
2023-03-16T06:05:36.741Z,0.96
2023-03-16T06:07:40.712Z,2.07
2023-03-16T06:08:40.691Z,2.54
2023-03-16T06:10:33.643Z,3.31
2023-03-16T06:11:33.575Z,3.78
2023-03-16T06:13:26.665Z,4.38
2023-03-16T06:14:26.645Z,4.80
2023-03-16T06:16:30.660Z,5.33
2023-03-16T06:17:30.596Z,5.64
2023-03-16T06:19:34.580Z,6.01
2023-03-16T06:20:34.569Z,6.31
2023-03-16T06:22:27.655Z,6.87
2023-03-16T06:23:27.630Z,7.11
2023-03-16T06:25:31.609Z,7.56
2023-03-16T06:26:31.593Z,7.75
2023-03-16T06:28:35.560Z,8.24
2023-03-16T06:29:35.544Z,8.33
2023-03-16T06:31:28.679Z,8.46
2023-03-16T06:32:28.652Z,8.49
2023-03-16T06:34:32.589Z,7.79
2023-03-16T06:35:32.641Z,7.39
2023-03-16T06:37:36.611Z,7.06
2023-03-16T06:38:36.598Z,7.36
2023-03-16T06:40:30.096Z,8.00
2023-03-16T06:41:29.490Z,8.42
2023-03-16T06:43:33.495Z,9.02
2023-03-16T06:44:33.473Z,9.43
2023-03-16T06:46:37.438Z,10.10
2023-03-16T06:47:37.421Z,10.23
2023-03-16T06:49:41.408Z,10.44
2023-03-16T06:50:41.400Z,10.63
2023-03-16T06:52:45.386Z,10.87
2023-03-16T06:53:45.371Z,10.74
2023-03-16T06:55:49.340Z,9.72
2023-03-16T06:56:49.320Z,9.32
2023-03-16T06:58:53.301Z,8.79
2023-03-16T06:59:53.281Z,8.38
2023-03-16T07:01:46.373Z,7.66
2023-03-16T07:02:46.360Z,7.23
2023-03-16T07:04:39.870Z,6.45
2023-03-16T07:05:39.870Z,6.17
2023-03-16T07:07:32.906Z,5.59
2023-03-16T07:08:32.881Z,5.35
2023-03-16T07:10:25.827Z,4.99
2023-03-16T07:11:25.782Z,4.89
2023-03-16T07:13:18.894Z,4.62
2023-03-16T07:14:18.873Z,4.44
2023-03-16T07:16:12.029Z,4.23
2023-03-16T07:17:11.944Z,4.05
2023-03-16T07:19:15.917Z,3.91
2023-03-16T07:20:15.898Z,3.69
2023-03-16T07:22:19.892Z,3.66
2023-03-16T07:23:19.861Z,3.62
2023-03-16T07:25:23.858Z,3.48
2023-03-16T07:26:23.849Z,3.48
2023-03-16T07:28:16.938Z,3.50
2023-03-16T07:29:16.917Z,3.50
2023-03-16T07:31:20.951Z,3.53
2023-03-16T07:32:20.896Z,3.51
2023-03-16T07:34:24.873Z,3.56
2023-03-16T07:35:24.866Z,3.48
2023-03-16T07:37:28.858Z,3.59
2023-03-16T07:38:28.836Z,3.45
2023-03-16T07:40:21.735Z,3.56
2023-03-16T07:41:21.719Z,3.58
2023-03-16T07:43:25.688Z,3.58
2023-03-16T07:44:25.668Z,3.60
2023-03-16T07:46:29.791Z,3.56
2023-03-16T07:47:29.650Z,3.58
2023-03-16T07:49:33.862Z,3.59
2023-03-16T07:50:33.850Z,3.60
2023-03-16T07:52:37.860Z,3.63
2023-03-16T07:53:37.845Z,3.65
2023-03-16T07:55:30.923Z,3.69
2023-03-16T07:56:42.291Z,3.73
2023-03-16T07:58:34.894Z,3.80
2023-03-16T07:59:34.874Z,3.83
2023-03-16T08:01:38.850Z,3.81
2023-03-16T08:02:38.933Z,3.80
2023-03-16T08:04:42.825Z,3.87
2023-03-16T08:05:42.807Z,3.98
2023-03-16T08:07:46.800Z,4.01
2023-03-16T08:08:46.784Z,4.06
2023-03-16T08:10:39.676Z,4.17
2023-03-16T08:11:39.664Z,4.13
2023-03-16T08:13:43.644Z,4.24
2023-03-16T08:14:43.626Z,4.19
2023-03-16T08:16:47.633Z,4.26
2023-03-16T08:17:47.608Z,4.24
2023-03-16T08:19:40.830Z,4.26
2023-03-16T08:20:40.806Z,4.34
2023-03-16T08:22:44.789Z,4.34
2023-03-16T08:23:44.761Z,4.42
2023-03-16T08:25:37.867Z,4.41
2023-03-16T08:26:39.571Z,4.41
2023-03-16T08:28:41.866Z,4.41
2023-03-16T08:29:41.825Z,4.52
2023-03-16T08:31:35.000Z,4.55
2023-03-16T08:32:35.010Z,4.67
2023-03-16T08:34:38.916Z,4.62
2023-03-16T08:35:38.957Z,4.63
2023-03-16T08:37:42.895Z,4.78
2023-03-16T08:38:44.149Z,4.82
2023-03-16T08:40:35.784Z,4.90
2023-03-16T08:41:35.770Z,4.89
2023-03-16T08:43:39.773Z,4.92
2023-03-16T08:44:39.736Z,4.92
2023-03-16T08:46:32.901Z,4.94
2023-03-16T08:47:32.821Z,4.93
2023-03-16T08:49:36.804Z,5.04
2023-03-16T08:50:36.799Z,5.11
2023-03-16T08:52:29.736Z,5.18
2023-03-16T08:53:29.714Z,5.21
2023-03-16T08:55:22.811Z,5.25
2023-03-16T08:56:22.800Z,5.26
2023-03-16T08:58:26.774Z,5.26
2023-03-16T08:59:30.137Z,5.29
2023-03-16T09:01:30.810Z,5.43
2023-03-16T09:02:30.738Z,5.43
2023-03-16T09:04:23.937Z,5.64
2023-03-16T09:05:23.812Z,5.50
2023-03-16T09:07:16.917Z,5.62
2023-03-16T09:08:16.894Z,5.68
2023-03-16T09:10:10.803Z,5.65
2023-03-16T09:11:10.788Z,5.73
2023-03-16T09:13:14.787Z,5.76
2023-03-16T09:14:14.767Z,5.87
2023-03-16T09:16:19.057Z,5.79
2023-03-16T09:17:18.940Z,5.79
2023-03-16T09:19:22.931Z,5.83
2023-03-16T09:20:34.555Z,5.79
2023-03-16T09:22:16.027Z,5.87
2023-03-16T09:23:16.024Z,5.87
2023-03-16T09:25:20.014Z,5.91
2023-03-16T09:26:19.987Z,6.01
2023-03-16T09:28:13.069Z,5.97
2023-03-16T09:29:13.061Z,6.11
2023-03-16T09:31:17.068Z,6.16
2023-03-16T09:32:17.024Z,6.16
2023-03-16T09:34:20.989Z,6.11
2023-03-16T09:35:20.977Z,6.12
2023-03-16T09:37:24.962Z,6.19
2023-03-16T09:38:24.953Z,6.31
2023-03-16T09:40:17.840Z,6.33
2023-03-16T09:41:17.824Z,6.26
2023-03-16T09:43:10.950Z,6.19
2023-03-16T09:44:10.912Z,6.19
2023-03-16T09:46:04.054Z,6.35
2023-03-16T09:47:03.978Z,6.42
2023-03-16T09:49:07.962Z,6.36
2023-03-16T09:50:08.072Z,6.31
2023-03-16T09:52:11.938Z,6.49
2023-03-16T09:53:11.923Z,6.38
2023-03-16T09:55:05.049Z,6.46
2023-03-16T09:56:04.994Z,6.48
2023-03-16T09:58:08.964Z,6.41
2023-03-16T09:59:08.972Z,6.51
2023-03-16T10:01:12.997Z,6.49
2023-03-16T10:02:12.922Z,6.52
2023-03-16T10:04:17.014Z,6.60
2023-03-16T10:05:16.922Z,6.75
2023-03-16T10:07:20.906Z,6.82
2023-03-16T10:08:20.888Z,6.72
2023-03-16T10:10:13.833Z,6.88
2023-03-16T10:11:13.788Z,6.87
2023-03-16T10:13:17.773Z,6.99
2023-03-16T10:14:17.809Z,6.93
2023-03-16T10:16:21.806Z,7.03
2023-03-16T10:17:21.715Z,7.00
2023-03-16T10:19:25.700Z,6.96
2023-03-16T10:20:25.695Z,7.03
2023-03-16T10:22:29.656Z,7.11
2023-03-16T10:23:29.635Z,7.10
2023-03-16T10:25:22.724Z,7.21
2023-03-16T10:26:22.710Z,7.33
2023-03-16T10:28:15.811Z,7.43
2023-03-16T10:29:15.789Z,7.40
2023-03-16T10:31:08.880Z,7.54
2023-03-16T10:32:08.924Z,7.48
2023-03-16T10:34:12.863Z,7.57
2023-03-16T10:35:12.846Z,7.56
2023-03-16T10:37:16.822Z,7.39
2023-03-16T10:38:16.803Z,7.53
2023-03-16T10:40:09.690Z,7.53
2023-03-16T10:41:09.677Z,7.54
2023-03-16T10:43:13.697Z,7.61
2023-03-16T10:44:13.684Z,7.67
2023-03-16T10:46:06.821Z,7.57
2023-03-16T10:47:06.803Z,7.66
2023-03-16T10:48:59.885Z,7.79
2023-03-16T10:49:59.829Z,7.76
2023-03-16T10:52:03.835Z,7.77
2023-03-16T10:53:03.812Z,7.80
2023-03-16T10:54:56.904Z,7.82
2023-03-16T10:55:56.892Z,7.82
2023-03-16T10:58:00.863Z,7.95
2023-03-16T10:59:00.844Z,7.93
2023-03-16T11:00:53.984Z,7.95
2023-03-16T11:01:53.928Z,7.94
2023-03-16T11:03:57.904Z,7.93
2023-03-16T11:04:57.931Z,8.00
2023-03-16T11:07:01.892Z,7.97
2023-03-16T11:08:01.868Z,7.94
2023-03-16T11:09:54.788Z,7.90
2023-03-16T11:10:56.233Z,7.97
2023-03-16T11:12:47.942Z,7.98
2023-03-16T11:13:47.855Z,7.98
2023-03-16T11:15:51.834Z,8.03
2023-03-16T11:16:51.863Z,7.97
2023-03-16T11:18:55.828Z,8.15
2023-03-16T11:19:55.799Z,8.15
2023-03-16T11:21:59.858Z,8.09
2023-03-16T11:22:59.800Z,8.15
2023-03-16T11:25:03.774Z,8.23
2023-03-16T11:26:03.776Z,8.20
2023-03-16T11:28:07.747Z,8.34
2023-03-16T11:29:07.763Z,8.31
2023-03-16T11:31:00.690Z,8.31
2023-03-16T11:32:00.628Z,8.36
2023-03-16T11:34:04.607Z,8.37
2023-03-16T11:35:04.677Z,8.42
2023-03-16T11:37:08.577Z,8.53
2023-03-16T11:38:08.563Z,8.61
2023-03-16T11:40:12.525Z,8.71
2023-03-16T11:41:12.515Z,8.76
2023-03-16T11:43:16.502Z,8.74
2023-03-16T11:44:16.475Z,8.84
2023-03-16T11:46:09.617Z,8.88
2023-03-16T11:47:09.587Z,8.87
2023-03-16T11:49:02.693Z,9.02
2023-03-16T11:50:02.677Z,8.95
2023-03-16T11:51:55.750Z,8.95
2023-03-16T11:52:55.734Z,8.89
2023-03-16T11:54:59.722Z,8.92
2023-03-16T11:55:59.713Z,8.85
2023-03-16T11:58:03.718Z,8.95
2023-03-16T11:59:03.706Z,8.87
2023-03-16T12:00:56.584Z,8.82
2023-03-16T12:02:00.748Z,8.82
2023-03-16T12:04:00.557Z,8.87
2023-03-16T12:05:00.529Z,8.94
2023-03-16T12:06:02.031Z,8.99
2023-03-16T12:07:00.506Z,8.99
2023-03-16T12:08:00.497Z,8.92
2023-03-16T12:09:00.486Z,8.99
2023-03-16T12:10:00.475Z,9.03
2023-03-16T12:11:00.468Z,8.97
2023-03-16T12:12:00.462Z,8.97
2023-03-16T12:13:00.472Z,8.99
2023-03-16T12:14:00.435Z,9.14
2023-03-16T12:15:00.439Z,9.23
2023-03-16T12:16:00.465Z,9.23
2023-03-16T12:17:02.365Z,9.37
2023-03-16T12:18:00.396Z,9.40
2023-03-16T12:19:00.531Z,9.37
2023-03-16T12:20:00.384Z,9.29
2023-03-16T12:21:00.365Z,9.36
2023-03-16T12:22:00.357Z,9.36
2023-03-16T12:23:00.358Z,9.37
2023-03-16T12:24:00.344Z,9.46
2023-03-16T12:25:00.359Z,9.41
2023-03-16T12:26:00.322Z,9.40
2023-03-16T12:27:00.308Z,9.37
2023-03-16T12:28:00.293Z,9.43
2023-03-16T12:29:00.298Z,9.41
2023-03-16T12:30:00.303Z,9.41
2023-03-16T12:31:00.272Z,9.43
2023-03-16T12:32:00.264Z,9.41
2023-03-16T12:33:00.282Z,9.47
2023-03-16T12:34:00.259Z,9.44
2023-03-16T12:35:00.233Z,9.41
2023-03-16T12:36:00.318Z,9.43
2023-03-16T12:37:00.241Z,9.47
2023-03-16T12:38:00.229Z,9.44
2023-03-16T12:39:00.195Z,9.44
2023-03-16T12:40:00.199Z,9.47
2023-03-16T12:41:00.176Z,9.44
2023-03-16T12:42:00.169Z,9.47
2023-03-16T12:43:00.159Z,9.32
2023-03-16T12:44:00.215Z,9.48
2023-03-16T12:45:00.162Z,9.44
2023-03-16T12:46:00.224Z,9.51
2023-03-16T12:47:00.119Z,9.51
2023-03-16T12:48:00.145Z,9.43
2023-03-16T12:49:00.103Z,9.47
2023-03-16T12:50:00.136Z,9.48
2023-03-16T12:51:00.094Z,9.51
2023-03-16T12:52:00.121Z,9.54
2023-03-16T12:53:00.082Z,9.56
2023-03-16T12:54:00.054Z,9.56
2023-03-16T12:55:00.050Z,9.59
2023-03-16T12:56:00.035Z,9.55
2023-03-16T12:57:00.035Z,9.48
2023-03-16T12:58:00.034Z,9.55
2023-03-16T12:59:00.008Z,9.61
2023-03-16T12:59:59.999Z,9.62
2023-03-16T13:01:00.049Z,9.65
2023-03-16T13:01:59.979Z,9.66
2023-03-16T13:02:59.972Z,9.62
2023-03-16T13:03:59.986Z,9.50
2023-03-16T13:04:59.951Z,9.47
2023-03-16T13:05:59.943Z,9.41
2023-03-16T13:06:59.936Z,9.44
2023-03-16T13:07:59.928Z,9.48
2023-03-16T13:08:59.923Z,9.40
2023-03-16T13:09:59.908Z,9.43
2023-03-16T13:10:59.899Z,9.46
2023-03-16T13:11:59.897Z,9.41
2023-03-16T13:12:59.882Z,9.40
2023-03-16T13:13:59.873Z,9.36
2023-03-16T13:14:59.879Z,9.36
2023-03-16T13:15:59.851Z,9.29
2023-03-16T13:16:59.967Z,9.39
2023-03-16T13:17:59.837Z,9.40
2023-03-16T13:18:59.838Z,9.36
2023-03-16T13:19:59.873Z,9.34
2023-03-16T13:20:59.944Z,9.40
2023-03-16T13:21:59.798Z,9.41
2023-03-16T13:22:59.805Z,9.41
2023-03-16T13:23:59.781Z,9.39
2023-03-16T13:24:59.797Z,9.46
2023-03-16T13:25:59.758Z,9.39
2023-03-16T13:26:59.752Z,9.47
2023-03-16T13:27:59.747Z,9.44
2023-03-16T13:28:59.735Z,9.46
2023-03-16T13:29:59.734Z,9.50
2023-03-16T13:30:59.793Z,9.50
2023-03-16T13:31:59.762Z,9.43
2023-03-16T13:32:59.718Z,9.56
2023-03-16T13:33:59.689Z,9.62
2023-03-16T13:34:59.681Z,9.65
2023-03-16T13:35:59.737Z,9.54
2023-03-16T13:36:59.668Z,9.58
2023-03-16T13:37:59.649Z,9.43
2023-03-16T13:38:59.643Z,9.41
2023-03-16T13:39:59.726Z,9.32
2023-03-16T13:40:59.633Z,9.32
2023-03-16T13:41:59.702Z,9.31
2023-03-16T13:42:59.604Z,9.44
2023-03-16T13:43:59.593Z,9.43
2023-03-16T13:44:59.593Z,9.50
2023-03-16T13:45:59.611Z,9.46
2023-03-16T13:46:59.569Z,9.56
2023-03-16T13:47:59.559Z,9.65
2023-03-16T13:48:59.549Z,9.68
2023-03-16T13:49:59.546Z,9.68
2023-03-16T13:50:59.533Z,9.73
2023-03-16T13:51:59.522Z,9.66
2023-03-16T13:52:59.511Z,9.72
2023-03-16T13:53:59.506Z,9.72
2023-03-16T13:54:59.491Z,9.72
2023-03-16T13:55:59.485Z,9.79
2023-03-16T13:56:59.476Z,9.69
2023-03-16T13:57:59.469Z,9.77
2023-03-16T13:58:59.462Z,9.77
2023-03-16T13:59:59.448Z,9.68
2023-03-16T14:00:59.483Z,9.56
2023-03-16T14:01:59.429Z,9.59
2023-03-16T14:02:59.485Z,9.64
2023-03-16T14:03:59.411Z,9.68
2023-03-16T14:04:59.413Z,9.54
2023-03-16T14:05:59.394Z,9.59
2023-03-16T14:06:59.385Z,9.59
2023-03-16T14:07:59.378Z,9.62
2023-03-16T14:08:59.367Z,9.54
2023-03-16T14:09:59.366Z,9.48
2023-03-16T14:11:01.317Z,9.55
2023-03-16T14:11:59.353Z,9.48
2023-03-16T14:12:59.329Z,9.44
2023-03-16T14:13:59.320Z,9.43
2023-03-16T14:14:59.311Z,9.44
2023-03-16T14:15:59.339Z,9.48
2023-03-16T14:17:00.332Z,9.46
2023-03-16T14:17:59.286Z,9.46
2023-03-16T14:18:59.276Z,9.43
2023-03-16T14:19:59.273Z,9.51
2023-03-16T14:20:59.258Z,9.62
2023-03-16T14:21:59.251Z,9.66
2023-03-16T14:23:00.045Z,9.54
2023-03-16T14:23:59.231Z,9.65
2023-03-16T14:24:59.352Z,9.69
2023-03-16T14:25:59.211Z,9.55
2023-03-16T14:26:59.361Z,9.55
2023-03-16T14:27:59.202Z,9.51
2023-03-16T14:28:59.188Z,9.55
2023-03-16T14:29:59.175Z,9.48
2023-03-16T14:30:59.173Z,9.44
2023-03-16T14:31:59.158Z,9.58
2023-03-16T14:32:59.184Z,9.62
2023-03-16T14:33:59.138Z,9.65
2023-03-16T14:35:00.347Z,9.62
2023-03-16T14:35:59.153Z,9.59
2023-03-16T14:36:59.113Z,9.46
2023-03-16T14:37:59.102Z,9.41
2023-03-16T14:38:59.093Z,9.44
2023-03-16T14:39:59.085Z,9.44
2023-03-16T14:40:59.077Z,9.46
2023-03-16T14:41:59.063Z,9.37
2023-03-16T14:42:59.065Z,9.50
2023-03-16T14:43:59.061Z,9.44
2023-03-16T14:44:59.040Z,9.40
2023-03-16T14:45:59.121Z,9.46
2023-03-16T14:46:59.019Z,9.37
2023-03-16T14:47:59.008Z,9.32
2023-03-16T14:48:59.001Z,9.36
2023-03-16T14:49:58.995Z,9.37
2023-03-16T14:50:58.985Z,9.36
2023-03-16T14:51:58.984Z,9.32
2023-03-16T14:52:58.970Z,9.34
2023-03-16T14:53:58.966Z,9.36
2023-03-16T14:54:58.954Z,9.36
2023-03-16T14:55:58.952Z,9.26
2023-03-16T14:56:58.930Z,9.29
2023-03-16T14:57:58.923Z,9.29
2023-03-16T14:58:58.909Z,9.32
2023-03-16T14:59:58.901Z,9.31
2023-03-16T15:00:58.898Z,9.23
2023-03-16T15:01:58.939Z,9.21
2023-03-16T15:02:58.900Z,9.26
2023-03-16T15:03:58.861Z,9.21
2023-03-16T15:04:58.861Z,9.22
2023-03-16T15:05:58.911Z,9.21
2023-03-16T15:06:58.846Z,9.23
2023-03-16T15:07:58.834Z,9.18
2023-03-16T15:08:58.833Z,9.21
2023-03-16T15:09:58.808Z,9.28
2023-03-16T15:10:58.802Z,9.25
2023-03-16T15:11:58.791Z,9.22
2023-03-16T15:12:58.779Z,9.23
2023-03-16T15:13:58.771Z,9.18
2023-03-16T15:14:58.763Z,9.32
2023-03-16T15:15:58.766Z,9.18
2023-03-16T15:16:58.757Z,9.22
2023-03-16T15:17:58.739Z,9.25